LGTSLGEL

Guest
Details From LGTS - Thessalonik Makedonia
To LGEL - ELEFSIS
Flight Number -
Tags generated
Created
Modified
Stats Distance 151 nm / 280 km
Max Altitude 17,900 ft / 5,456 m
Waypoints 5
Social Downloads 1
Likes 0
Share VATSIM

Download

Looking for another format? Having issues loading an existing format? Contact us
Advertisement - Login to hide

Notes

Basic altitude profile: - Ascent Rate: 2500ft/min - Ascent Speed: 250kts - Cruise Altitude: 35000ft - Cruise Speed: 420kts - Descent Rate: 1500ft/min - Descent Speed: 250kts Options: - Use NATs: yes - Use PACOTS: yes - Use low airways: yes - Use high airways: no

Route

LGTS TSL B1 AGISA LGEL

ID Type Via Altitude Latitude Longitude Leg Dist Tot Dist Heading (true) Name
O LGTS APT - 0 ft / 0 m 40.51952˚ 22.97202˚ - 0 nm - Thessalonik Makedonia
TSL VOR - 1,300 ft / 396 m 40.45694˚ 22.99111˚ 3 nm 3 nm 167° / 167° THESSALONIKI VOR-DME
LEKPO FIX B1 (AWY-LO) 9,200 ft / 2,804 m 40.11278˚ 23.16194˚ 22 nm 25 nm 159° / 159° -
AGISA FIX B1 (AWY-LO) 17,900 ft / 5,456 m 39.73333˚ 23.35000˚ 24 nm 50 nm 159° / 159° -
O LGEL APT - 0 ft / 0 m 38.06392˚ 23.55604˚ 100 nm 151 nm 174° / 175° ELEFSIS

Altitude Profile

Advertisement - Login to hide

LGTS

Details ICAO LGTS (SKG)
Name Thessalonik Makedonia
Region Greece
Timezone Europe/Athens (UTC+3.0)
Stats Elevation 22 ft / 7 m (AMSL)
Location 40.519522° 22.972017°
Runways 2
Magnetic Variation 4.666° E

METAR

LGTS 211320Z 35005KT 9999 FEW018TCU SCT020 23/15 Q1015 NOSIG

Decode

TAF

TAF LGTS 211100Z 2112/2212 20010KT 9999 SCT025 PROB40 TEMPO 2112/2116 6000 SHRA FEW020CB BKN025 PROB30 TEMPO 2112/2114 4000 TSRA FEW008 FEW015CB BKN020 BECMG 2116/2118 VRB03KT FEW030

Decode

Departure Runways

ID Width Length Bearing (true) Bearing (mag) Surface Threshold Offset Overrun Length
10 164 ft / 50 m 7,990 ft / 2,435 m 103.95° 99.28° Asphalt 0 ft / 0 m 150 ft / 46 m
16 197 ft / 60 m 7,927 ft / 2,416 m 166.35° 161.68° Asphalt 0 ft / 0 m 200 ft / 61 m
28 164 ft / 50 m 7,990 ft / 2,435 m 283.97° 279.30° Asphalt 0 ft / 0 m 150 ft / 46 m
34 197 ft / 60 m 7,927 ft / 2,416 m 346.36° 341.69° Asphalt 0 ft / 0 m 200 ft / 61 m

LGEL

Details ICAO LGEL
Name ELEFSIS
Region Greece
Timezone Europe/Athens (UTC+3.0)
Stats Elevation 143 ft / 44 m (AMSL)
Location 38.063917° 23.556041°
Runways 1
Magnetic Variation 4.491° E

METAR

LGEL 211320Z 01008KT 9999 FEW025 30/11 Q1011

Decode

TAF

TAF LGEL 211100Z 2112/2212 35012KT 9999 FEW020 TEMPO 2112/2118 35012G22KT PROB30 TEMPO 2112/2115 5000 SHRA FEW018CB SCT020 BKN070

Decode

Destination Runways

ID Width Length Bearing (true) Bearing (mag) Surface Threshold Offset Overrun Length
18 131 ft / 40 m 8,940 ft / 2,725 m 179.85° 175.36° Asphalt 0 ft / 0 m 830 ft / 253 m
36 131 ft / 40 m 8,940 ft / 2,725 m 359.85° 355.36° Asphalt 198 ft / 60 m 150 ft / 46 m

Popular Alternatives